createdAt,value
2023-01-30T00:01:51.004Z,8.50
2023-01-30T00:04:18.735Z,7.60
2023-01-30T00:06:46.890Z,7.50
2023-01-30T00:09:17.398Z,6.00
2023-01-30T00:11:45.027Z,6.80
2023-01-30T00:14:12.681Z,7.60
2023-01-30T00:16:40.425Z,6.80
2023-01-30T00:19:08.287Z,6.10
2023-01-30T00:21:35.904Z,6.70
2023-01-30T00:24:03.891Z,6.20
2023-01-30T00:26:31.905Z,7.70
2023-01-30T00:28:59.597Z,6.30
2023-01-30T00:31:27.258Z,7.20
2023-01-30T00:33:55.002Z,6.50
2023-01-30T00:36:24.613Z,7.20
2023-01-30T00:38:52.565Z,6.20
2023-01-30T00:41:20.341Z,6.30
2023-01-30T00:44:06.862Z,6.10
2023-01-30T00:46:53.420Z,5.00
2023-01-30T00:49:22.229Z,4.90
2023-01-30T00:51:49.919Z,5.80
2023-01-30T00:54:17.543Z,3.90
2023-01-30T00:56:45.343Z,5.60
2023-01-30T00:59:13.168Z,4.30
2023-01-30T01:01:41.021Z,6.00
2023-01-30T01:04:10.543Z,4.80
2023-01-30T01:06:38.687Z,5.10
2023-01-30T01:09:07.257Z,5.10
2023-01-30T01:11:35.907Z,5.70
2023-01-30T01:14:04.912Z,4.40
2023-01-30T01:16:33.860Z,4.00
2023-01-30T01:19:02.342Z,4.40
2023-01-30T01:21:30.049Z,4.80
2023-01-30T01:23:59.921Z,4.20
2023-01-30T01:26:27.703Z,3.70
2023-01-30T01:28:57.092Z,4.90
2023-01-30T01:31:25.785Z,4.50
2023-01-30T01:33:56.890Z,4.90
2023-01-30T01:36:52.131Z,5.30
2023-01-30T01:39:14.092Z,5.20
2023-01-30T01:41:42.939Z,5.40
2023-01-30T01:44:13.801Z,5.40
2023-01-30T01:46:56.747Z,4.20
2023-01-30T01:49:32.399Z,4.70
2023-01-30T01:52:13.661Z,4.60
2023-01-30T01:54:54.932Z,4.40
2023-01-30T01:57:40.210Z,4.40
2023-01-30T02:00:17.765Z,5.10
2023-01-30T02:03:06.264Z,4.90
2023-01-30T02:05:39.183Z,5.10
2023-01-30T02:08:16.014Z,4.30
2023-01-30T02:10:53.630Z,4.50
2023-01-30T02:13:21.610Z,3.50
2023-01-30T02:15:50.973Z,2.60
2023-01-30T02:18:19.503Z,5.30
2023-01-30T02:21:24.808Z,5.10
2023-01-30T02:24:11.414Z,2.80
2023-01-30T02:27:17.063Z,4.60
2023-01-30T02:30:08.658Z,3.60
2023-01-30T02:32:48.374Z,4.80
2023-01-30T02:35:34.569Z,4.00
2023-01-30T02:38:02.185Z,3.60
2023-01-30T02:40:34.088Z,4.20
2023-01-30T02:43:13.659Z,4.50
2023-01-30T02:45:46.179Z,4.20
2023-01-30T02:48:22.286Z,3.20
2023-01-30T02:50:57.370Z,4.40
2023-01-30T02:53:25.223Z,4.20
2023-01-30T02:55:52.977Z,3.80
2023-01-30T02:58:24.022Z,3.80
2023-01-30T03:01:53.994Z,4.50
2023-01-30T03:04:36.566Z,4.90
2023-01-30T03:07:10.839Z,4.40
2023-01-30T03:10:02.276Z,6.00
2023-01-30T03:12:52.983Z,5.10
2023-01-30T03:15:24.845Z,6.70
2023-01-30T03:17:53.395Z,4.90
2023-01-30T03:20:22.157Z,5.70
2023-01-30T03:22:49.942Z,2.50
2023-01-30T03:25:21.892Z,4.50
2023-01-30T03:27:53.343Z,5.60
2023-01-30T03:30:23.091Z,6.30
2023-01-30T03:32:50.861Z,6.90
2023-01-30T03:35:19.545Z,6.00
2023-01-30T03:37:48.016Z,5.30
2023-01-30T03:40:17.112Z,5.00
2023-01-30T03:42:45.797Z,4.50
2023-01-30T03:45:13.494Z,4.40
2023-01-30T03:47:41.221Z,4.20
2023-01-30T03:50:09.886Z,2.70
2023-01-30T03:52:38.091Z,4.00
2023-01-30T03:55:09.684Z,5.20
2023-01-30T03:57:37.517Z,3.40
2023-01-30T04:00:05.719Z,5.40
2023-01-30T04:02:43.863Z,4.50
2023-01-30T04:05:13.571Z,3.50
2023-01-30T04:07:44.272Z,2.80
2023-01-30T04:10:15.343Z,4.60
2023-01-30T04:12:43.030Z,3.90
2023-01-30T04:15:11.601Z,4.40
2023-01-30T04:18:05.680Z,2.90
2023-01-30T04:20:51.931Z,4.00
2023-01-30T04:23:24.869Z,4.50
2023-01-30T04:25:52.663Z,4.80
2023-01-30T04:28:21.265Z,3.20
2023-01-30T04:30:49.115Z,3.80
2023-01-30T04:33:46.172Z,2.70
2023-01-30T04:36:13.921Z,4.00
2023-01-30T04:38:41.817Z,3.70
2023-01-30T04:41:09.514Z,4.80
2023-01-30T04:43:40.270Z,3.40
2023-01-30T04:46:25.771Z,2.50
2023-01-30T04:48:53.670Z,2.60
2023-01-30T04:51:21.311Z,3.90
2023-01-30T04:53:49.001Z,3.00
2023-01-30T04:56:16.760Z,2.90
2023-01-30T04:58:44.579Z,3.40
2023-01-30T05:01:22.903Z,2.70
2023-01-30T05:03:54.250Z,3.10
2023-01-30T05:06:23.182Z,2.10
2023-01-30T05:08:52.657Z,2.60
2023-01-30T05:11:21.422Z,3.80
2023-01-30T05:13:50.165Z,2.70
2023-01-30T05:16:19.288Z,3.50
2023-01-30T05:18:47.290Z,4.00
2023-01-30T05:21:18.557Z,3.50
2023-01-30T05:23:46.325Z,2.60
2023-01-30T05:26:15.100Z,3.10
2023-01-30T05:28:42.848Z,3.40
2023-01-30T05:31:12.913Z,3.60
2023-01-30T05:33:41.870Z,3.20
2023-01-30T05:36:15.433Z,2.50
2023-01-30T05:38:44.572Z,3.30
2023-01-30T05:41:14.668Z,3.00
2023-01-30T05:43:42.983Z,3.70
2023-01-30T05:46:12.596Z,2.90
2023-01-30T05:48:40.466Z,4.10
2023-01-30T05:51:17.010Z,3.20
2023-01-30T05:53:44.704Z,3.60
2023-01-30T05:56:12.372Z,4.20
2023-01-30T05:58:40.212Z,3.30
2023-01-30T06:01:11.002Z,3.10
2023-01-30T06:03:39.078Z,3.40
2023-01-30T06:06:07.596Z,4.10
2023-01-30T06:08:35.345Z,3.80
2023-01-30T06:11:09.327Z,3.30
2023-01-30T06:13:38.374Z,3.50
2023-01-30T06:16:08.409Z,4.70
2023-01-30T06:18:36.418Z,3.10
2023-01-30T06:21:04.822Z,3.70
2023-01-30T06:23:32.934Z,2.30
2023-01-30T06:26:03.413Z,3.50
2023-01-30T06:28:32.763Z,3.70
2023-01-30T06:31:00.498Z,3.30
2023-01-30T06:33:28.237Z,2.20
2023-01-30T06:35:56.125Z,2.90
2023-01-30T06:38:25.617Z,4.10
2023-01-30T06:43:21.375Z,4.50
2023-01-30T06:45:49.151Z,3.20
2023-01-30T06:48:16.822Z,3.40
2023-01-30T06:50:46.262Z,3.40
2023-01-30T06:53:14.122Z,3.80
2023-01-30T06:55:41.784Z,3.60
2023-01-30T06:58:12.522Z,3.40
2023-01-30T07:00:42.297Z,4.70
2023-01-30T07:03:15.712Z,4.00
2023-01-30T07:05:45.653Z,4.40
2023-01-30T07:08:14.861Z,3.50
2023-01-30T07:10:43.718Z,4.20
2023-01-30T07:13:11.819Z,4.70
2023-01-30T07:15:39.753Z,4.80
2023-01-30T07:18:07.412Z,2.80
2023-01-30T07:20:35.111Z,3.40
2023-01-30T07:23:02.967Z,5.40
2023-01-30T07:25:30.634Z,6.70
2023-01-30T07:28:00.812Z,4.10
2023-01-30T07:30:30.578Z,5.30
2023-01-30T07:37:55.879Z,4.70
2023-01-30T07:40:24.612Z,6.10
2023-01-30T07:43:05.666Z,3.40
2023-01-30T07:45:52.424Z,4.90
2023-01-30T07:48:20.198Z,4.10
2023-01-30T07:50:47.945Z,3.50
2023-01-30T07:53:18.429Z,3.90
2023-01-30T07:55:46.303Z,5.10
2023-01-30T07:58:15.526Z,5.80
2023-01-30T08:00:44.129Z,3.60
2023-01-30T08:03:13.702Z,5.40
2023-01-30T08:05:41.587Z,5.50
2023-01-30T08:08:09.280Z,5.10
2023-01-30T08:10:37.080Z,5.20
2023-01-30T08:13:04.891Z,6.70
2023-01-30T08:15:33.574Z,7.80
2023-01-30T08:18:02.118Z,5.00
2023-01-30T08:20:29.789Z,5.20
2023-01-30T08:22:58.904Z,6.40
2023-01-30T08:25:26.651Z,4.40
2023-01-30T08:27:54.759Z,5.10
2023-01-30T08:30:23.164Z,5.60
2023-01-30T08:32:51.071Z,6.60
2023-01-30T08:35:18.725Z,4.40
2023-01-30T08:37:46.444Z,5.00
2023-01-30T08:40:14.828Z,5.60
2023-01-30T08:42:45.845Z,5.70
2023-01-30T08:45:14.350Z,4.80
2023-01-30T08:47:42.465Z,3.80
2023-01-30T08:50:10.762Z,7.00
2023-01-30T08:52:38.455Z,7.00
2023-01-30T08:55:06.358Z,4.70
2023-01-30T08:57:34.111Z,6.70
2023-01-30T09:00:02.181Z,6.80
2023-01-30T09:02:30.105Z,6.20
2023-01-30T09:04:57.936Z,5.60
2023-01-30T09:07:26.047Z,4.80
2023-01-30T09:09:53.681Z,6.20
2023-01-30T09:12:22.144Z,5.20
2023-01-30T09:14:50.209Z,5.90
2023-01-30T09:17:17.925Z,5.70
2023-01-30T09:19:45.599Z,5.80
2023-01-30T09:22:17.269Z,5.60
2023-01-30T09:24:44.948Z,5.90
2023-01-30T09:27:12.675Z,5.90
2023-01-30T09:29:40.316Z,5.30
2023-01-30T09:32:08.300Z,8.60
2023-01-30T09:34:36.009Z,5.90
2023-01-30T09:37:05.126Z,6.10
2023-01-30T09:39:33.205Z,4.90
2023-01-30T09:42:19.050Z,5.40
2023-01-30T09:45:07.992Z,5.00
2023-01-30T09:47:39.395Z,5.50
2023-01-30T09:50:41.051Z,5.10
2023-01-30T09:53:34.382Z,6.00
2023-01-30T09:56:02.093Z,5.90
2023-01-30T09:58:54.899Z,4.60
2023-01-30T10:02:01.486Z,6.10
2023-01-30T10:05:00.533Z,4.10
2023-01-30T10:08:02.634Z,5.30
2023-01-30T10:11:09.677Z,4.50
2023-01-30T10:13:54.380Z,5.50
2023-01-30T10:16:35.079Z,6.00
2023-01-30T10:19:35.998Z,5.50
2023-01-30T10:22:10.215Z,4.70
2023-01-30T10:25:15.340Z,5.60
2023-01-30T10:27:52.357Z,4.90
2023-01-30T10:30:21.241Z,6.10
2023-01-30T10:33:05.987Z,5.50
2023-01-30T10:35:39.282Z,5.70
2023-01-30T10:38:22.043Z,5.90
2023-01-30T10:40:58.972Z,3.70
2023-01-30T10:43:33.008Z,4.70
2023-01-30T10:46:07.659Z,4.90
2023-01-30T10:48:56.917Z,5.00
2023-01-30T10:51:43.439Z,5.30
2023-01-30T10:54:30.129Z,5.50
2023-01-30T10:57:11.965Z,4.40
2023-01-30T11:00:04.154Z,4.50
2023-01-30T11:03:09.474Z,4.90
2023-01-30T11:05:47.126Z,4.60
2023-01-30T11:08:33.428Z,3.70
2023-01-30T11:11:01.921Z,3.50
2023-01-30T11:13:31.422Z,6.00
2023-01-30T11:16:10.057Z,5.60
2023-01-30T11:21:44.061Z,4.30
2023-01-30T11:24:21.239Z,4.80
2023-01-30T11:26:49.344Z,5.20
2023-01-30T11:29:30.548Z,5.00
2023-01-30T11:32:04.304Z,3.50
2023-01-30T11:34:32.741Z,5.20
2023-01-30T11:37:27.394Z,5.10
2023-01-30T11:39:56.456Z,4.80
2023-01-30T11:42:31.656Z,5.60
2023-01-30T11:45:16.152Z,3.80
2023-01-30T11:48:02.026Z,3.40
2023-01-30T11:50:46.805Z,4.40
2023-01-30T11:53:28.220Z,4.20
2023-01-30T11:56:06.316Z,4.30
2023-01-30T11:58:38.604Z,4.70
2023-01-30T12:01:10.600Z,4.50
2023-01-30T12:03:54.365Z,5.20
2023-01-30T12:06:42.845Z,5.00
2023-01-30T12:09:34.444Z,5.00
2023-01-30T12:12:02.250Z,5.10
2023-01-30T12:14:40.229Z,4.50
2023-01-30T12:17:21.314Z,4.50
2023-01-30T12:20:07.884Z,4.00
2023-01-30T12:22:49.543Z,5.10
2023-01-30T12:25:26.783Z,5.80
2023-01-30T12:28:03.319Z,5.50
2023-01-30T12:30:42.535Z,4.00
2023-01-30T12:33:15.361Z,5.40
2023-01-30T12:36:12.450Z,4.70
2023-01-30T12:38:46.026Z,4.60
2023-01-30T12:41:22.522Z,4.50
2023-01-30T12:44:13.757Z,5.40
2023-01-30T12:46:50.025Z,4.40
2023-01-30T12:49:33.141Z,4.30
2023-01-30T12:52:09.609Z,3.90
2023-01-30T12:54:55.273Z,3.70
2023-01-30T12:57:38.027Z,3.90
2023-01-30T13:00:43.834Z,3.70
2023-01-30T13:03:53.457Z,3.60
2023-01-30T13:06:46.836Z,3.90
2023-01-30T13:09:39.858Z,3.60
2023-01-30T13:12:35.311Z,3.70
2023-01-30T13:15:33.980Z,3.70
2023-01-30T13:18:22.413Z,4.30
2023-01-30T13:20:52.778Z,5.10
2023-01-30T13:23:41.543Z,5.00
2023-01-30T13:26:23.033Z,5.00
2023-01-30T13:28:59.259Z,5.00
2023-01-30T13:31:32.182Z,4.60
2023-01-30T13:34:12.029Z,3.50
2023-01-30T13:37:04.126Z,4.50
2023-01-30T13:39:50.474Z,4.40
2023-01-30T13:42:35.249Z,4.70
2023-01-30T13:45:05.468Z,4.40
2023-01-30T13:48:11.968Z,5.60
2023-01-30T13:50:48.531Z,4.50
2023-01-30T13:53:34.987Z,4.10
2023-01-30T13:56:27.029Z,5.00
2023-01-30T13:59:10.494Z,3.50
2023-01-30T14:02:02.022Z,4.20
2023-01-30T14:04:39.602Z,5.40
2023-01-30T14:07:30.034Z,4.80
2023-01-30T14:10:12.851Z,4.10
2023-01-30T14:12:44.651Z,4.10
2023-01-30T14:15:16.132Z,4.50
2023-01-30T14:18:01.689Z,4.60
2023-01-30T14:20:32.485Z,3.80
2023-01-30T14:23:21.866Z,4.70
2023-01-30T14:25:52.203Z,5.20
2023-01-30T14:28:19.852Z,3.90
2023-01-30T14:30:50.155Z,4.90
2023-01-30T14:33:20.879Z,4.30
2023-01-30T14:35:54.513Z,4.70
2023-01-30T14:38:22.462Z,5.20
2023-01-30T14:41:03.545Z,4.80
2023-01-30T14:43:43.228Z,4.50
2023-01-30T14:46:17.269Z,4.30
2023-01-30T14:48:51.943Z,5.10
2023-01-30T14:51:28.429Z,5.80
2023-01-30T14:53:58.721Z,6.00
2023-01-30T14:56:40.897Z,4.00
2023-01-30T15:02:06.557Z,3.90
2023-01-30T15:04:41.444Z,6.30
2023-01-30T15:07:23.531Z,4.80
2023-01-30T15:10:11.322Z,4.40
2023-01-30T15:12:57.000Z,4.80
2023-01-30T15:15:46.155Z,4.50
2023-01-30T15:18:34.322Z,5.30
2023-01-30T15:21:27.006Z,4.90
2023-01-30T15:23:54.563Z,5.10
2023-01-30T15:26:37.582Z,4.80
2023-01-30T15:29:30.135Z,6.20
2023-01-30T15:32:01.033Z,4.80
2023-01-30T15:34:34.171Z,5.80
2023-01-30T15:37:01.819Z,6.10
2023-01-30T15:39:29.481Z,5.80
2023-01-30T15:42:06.109Z,5.10
2023-01-30T15:44:39.966Z,6.00
2023-01-30T15:47:44.987Z,6.30
2023-01-30T15:50:12.974Z,4.90
2023-01-30T15:52:48.221Z,5.40
2023-01-30T15:55:26.957Z,5.60
2023-01-30T15:58:09.444Z,6.00
2023-01-30T16:00:44.373Z,7.10
2023-01-30T16:03:17.990Z,6.60
2023-01-30T16:05:56.694Z,5.50
2023-01-30T16:08:32.902Z,5.70
2023-01-30T16:11:00.822Z,5.50
2023-01-30T16:13:30.498Z,5.80
2023-01-30T16:16:14.072Z,7.90
2023-01-30T16:18:53.231Z,6.80
2023-01-30T16:21:24.096Z,5.80
2023-01-30T16:24:05.629Z,5.80
2023-01-30T16:26:36.306Z,5.50
2023-01-30T16:29:13.299Z,5.40
2023-01-30T16:31:41.792Z,5.90
2023-01-30T16:34:24.600Z,7.00
2023-01-30T16:36:52.239Z,6.00
2023-01-30T16:39:29.129Z,5.80
2023-01-30T16:41:58.949Z,5.50
2023-01-30T16:44:29.617Z,6.50
2023-01-30T16:47:34.598Z,5.70
2023-01-30T16:50:02.558Z,5.20
2023-01-30T16:52:36.985Z,4.60
2023-01-30T16:55:08.148Z,5.40
2023-01-30T16:57:43.529Z,5.80
2023-01-30T17:00:22.947Z,4.30
2023-01-30T17:02:54.685Z,6.20
2023-01-30T17:05:39.496Z,6.00
2023-01-30T17:08:33.042Z,6.50
2023-01-30T17:11:02.266Z,5.40
2023-01-30T17:13:29.873Z,6.10
2023-01-30T17:16:35.139Z,5.80
2023-01-30T17:19:03.144Z,5.60
2023-01-30T17:21:38.056Z,6.10
2023-01-30T17:24:06.437Z,5.00
2023-01-30T17:26:34.125Z,6.90
2023-01-30T17:29:01.974Z,4.40
2023-01-30T17:31:29.769Z,3.90
2023-01-30T17:33:57.765Z,6.00
2023-01-30T17:36:30.182Z,6.10
2023-01-30T17:39:00.081Z,5.10
2023-01-30T17:43:58.210Z,5.90
2023-01-30T17:46:37.716Z,4.40
2023-01-30T17:49:06.078Z,4.30
2023-01-30T17:51:33.858Z,4.10
2023-01-30T17:54:01.555Z,5.30
2023-01-30T17:56:38.462Z,5.40
2023-01-30T17:59:13.591Z,4.90
2023-01-30T18:01:42.731Z,5.60
2023-01-30T18:04:10.968Z,4.40
2023-01-30T18:06:40.814Z,3.80
2023-01-30T18:09:14.506Z,5.30
2023-01-30T18:11:42.208Z,4.90
2023-01-30T18:14:09.856Z,4.70
2023-01-30T18:16:37.966Z,4.60
2023-01-30T18:19:08.667Z,5.00
2023-01-30T18:21:38.560Z,4.50
2023-01-30T18:24:07.376Z,5.20
2023-01-30T18:26:35.339Z,4.30
2023-01-30T18:29:03.704Z,4.80
2023-01-30T18:31:31.795Z,4.30
2023-01-30T18:33:59.570Z,4.60
2023-01-30T18:36:27.681Z,4.30
2023-01-30T18:38:55.524Z,3.70
2023-01-30T18:41:24.599Z,4.30
2023-01-30T18:43:57.357Z,4.40
2023-01-30T18:46:26.297Z,4.20
2023-01-30T18:48:55.315Z,4.00
2023-01-30T18:51:25.689Z,4.30
2023-01-30T18:53:54.865Z,4.00
2023-01-30T18:56:33.486Z,4.10
2023-01-30T18:59:04.260Z,4.20
2023-01-30T19:01:35.724Z,4.20
2023-01-30T19:04:06.054Z,4.30
2023-01-30T19:06:36.741Z,4.90
2023-01-30T19:09:05.207Z,4.30
2023-01-30T19:11:51.496Z,4.70
2023-01-30T19:14:19.462Z,4.20
2023-01-30T19:16:47.507Z,3.90
2023-01-30T19:19:15.312Z,3.90
2023-01-30T19:21:43.244Z,4.30
2023-01-30T19:24:15.934Z,3.80
2023-01-30T19:26:43.789Z,4.70
2023-01-30T19:29:11.619Z,4.00
2023-01-30T19:31:39.478Z,4.60
2023-01-30T19:34:08.280Z,4.00
2023-01-30T19:36:36.529Z,3.80
2023-01-30T19:39:06.178Z,3.70
2023-01-30T19:44:05.790Z,3.90
2023-01-30T19:46:33.833Z,4.40
2023-01-30T19:49:03.450Z,4.30
2023-01-30T19:51:33.961Z,4.00
2023-01-30T19:54:06.987Z,4.70
2023-01-30T19:56:36.571Z,4.80
2023-01-30T19:59:04.377Z,4.60
2023-01-30T20:01:35.605Z,5.10
2023-01-30T20:04:03.819Z,5.70
2023-01-30T20:06:33.224Z,5.20
2023-01-30T20:09:07.774Z,4.00
2023-01-30T20:11:36.752Z,4.30
2023-01-30T20:14:07.001Z,3.60
2023-01-30T20:16:36.030Z,4.10
2023-01-30T20:19:11.563Z,4.40
2023-01-30T20:21:39.224Z,3.70
2023-01-30T20:24:07.503Z,4.40
2023-01-30T20:26:39.438Z,4.00
2023-01-30T20:29:09.280Z,4.20
2023-01-30T20:31:40.851Z,4.90
2023-01-30T20:34:11.765Z,5.10
2023-01-30T20:36:39.654Z,4.80
2023-01-30T20:39:07.968Z,4.60
2023-01-30T20:41:38.057Z,3.60
2023-01-30T20:44:07.581Z,4.70
2023-01-30T20:46:40.933Z,4.90
2023-01-30T20:49:14.669Z,3.40
2023-01-30T20:51:42.960Z,3.60
2023-01-30T20:54:13.481Z,3.70
2023-01-30T20:56:49.074Z,2.80
2023-01-30T20:59:20.113Z,3.20
2023-01-30T21:01:47.803Z,3.20
2023-01-30T21:04:16.601Z,3.70
2023-01-30T21:06:46.449Z,3.50
2023-01-30T21:09:23.408Z,3.40
2023-01-30T21:11:53.303Z,2.80
2023-01-30T21:14:21.624Z,3.30
2023-01-30T21:16:49.531Z,3.00
2023-01-30T21:19:17.950Z,3.20
2023-01-30T21:21:50.672Z,3.80
2023-01-30T21:24:28.349Z,2.70
2023-01-30T21:26:56.960Z,2.80
2023-01-30T21:29:26.779Z,2.80
2023-01-30T21:31:57.216Z,4.10
2023-01-30T21:34:25.240Z,2.60
2023-01-30T21:37:11.588Z,4.00
2023-01-30T21:39:57.792Z,4.20
2023-01-30T21:42:44.309Z,2.20
2023-01-30T21:45:12.056Z,1.90
2023-01-30T21:47:39.958Z,3.40
2023-01-30T21:50:08.579Z,3.70
2023-01-30T21:52:36.907Z,3.70
2023-01-30T21:55:07.425Z,2.90
2023-01-30T21:57:35.126Z,3.70
2023-01-30T22:00:03.613Z,4.30
2023-01-30T22:02:32.872Z,3.30
2023-01-30T22:05:00.546Z,2.90
2023-01-30T22:07:28.231Z,3.00
2023-01-30T22:09:57.088Z,2.80
2023-01-30T22:12:26.196Z,2.90
2023-01-30T22:14:54.665Z,2.90
2023-01-30T22:17:22.512Z,3.70
2023-01-30T22:19:50.428Z,3.50
2023-01-30T22:22:18.181Z,2.70
2023-01-30T22:24:45.961Z,3.10
2023-01-30T22:27:13.691Z,3.00
2023-01-30T22:29:41.411Z,3.50
2023-01-30T22:32:09.143Z,3.80
2023-01-30T22:34:37.227Z,3.30
2023-01-30T22:37:04.887Z,3.50
2023-01-30T22:39:32.671Z,3.40
2023-01-30T22:42:00.358Z,3.80
2023-01-30T22:44:28.109Z,2.50
2023-01-30T22:46:55.859Z,4.10
2023-01-30T22:49:23.549Z,2.80
2023-01-30T22:51:51.244Z,3.20
2023-01-30T22:54:18.927Z,2.90
2023-01-30T22:56:48.938Z,3.80
2023-01-30T22:59:17.116Z,3.20
2023-01-30T23:01:47.829Z,3.20
2023-01-30T23:04:18.557Z,1.90
2023-01-30T23:06:47.566Z,2.30
2023-01-30T23:09:19.283Z,2.90
2023-01-30T23:12:09.266Z,3.00
2023-01-30T23:14:38.144Z,2.90
2023-01-30T23:17:25.630Z,3.40
2023-01-30T23:19:57.300Z,2.80
2023-01-30T23:22:25.075Z,2.80
2023-01-30T23:24:53.881Z,3.50
2023-01-30T23:27:21.926Z,2.70
2023-01-30T23:29:49.734Z,3.40
2023-01-30T23:32:19.992Z,2.80
2023-01-30T23:34:48.372Z,3.60
2023-01-30T23:37:17.262Z,2.30
2023-01-30T23:39:45.234Z,2.50
2023-01-30T23:42:12.874Z,2.10
2023-01-30T23:44:40.644Z,2.70
2023-01-30T23:47:08.520Z,3.00
2023-01-30T23:49:36.379Z,2.00
2023-01-30T23:52:04.177Z,2.80
2023-01-30T23:54:32.096Z,3.50
2023-01-30T23:57:00.017Z,2.80
2023-01-30T23:59:27.719Z,2.60
